createdAt,value
2023-04-03T00:00:45.699Z,3.87
2023-04-03T00:03:13.940Z,2.80
2023-04-03T00:05:42.251Z,3.00
2023-04-03T00:08:10.589Z,3.10
2023-04-03T00:10:39.509Z,3.13
2023-04-03T00:13:08.199Z,3.07
2023-04-03T00:15:38.254Z,2.60
2023-04-03T00:18:06.841Z,3.10
2023-04-03T00:20:35.760Z,3.13
2023-04-03T00:23:04.361Z,2.40
2023-04-03T00:25:32.603Z,2.80
2023-04-03T00:28:00.875Z,2.90
2023-04-03T00:30:29.211Z,2.87
2023-04-03T00:32:58.858Z,3.13
2023-04-03T00:35:27.397Z,2.37
2023-04-03T00:37:56.202Z,3.47
2023-04-03T00:40:25.658Z,2.50
2023-04-03T00:42:55.686Z,2.70
2023-04-03T00:45:29.181Z,2.40
2023-04-03T00:48:00.466Z,2.97
2023-04-03T00:50:29.301Z,3.50
2023-04-03T00:52:58.073Z,2.73
2023-04-03T00:55:27.173Z,2.67
2023-04-03T00:57:56.117Z,2.80
2023-04-03T01:00:24.987Z,2.87
2023-04-03T01:02:53.670Z,2.60
2023-04-03T01:05:23.889Z,2.70
2023-04-03T01:07:53.487Z,3.30
2023-04-03T01:10:22.434Z,3.00
2023-04-03T01:12:51.254Z,2.53
2023-04-03T01:15:20.491Z,2.40
2023-04-03T01:17:49.413Z,2.17
2023-04-03T01:20:27.634Z,2.63
2023-04-03T01:22:58.945Z,2.70
2023-04-03T01:25:27.353Z,2.73
2023-04-03T01:27:55.865Z,2.77
2023-04-03T01:30:26.513Z,3.03
2023-04-03T01:32:56.042Z,2.80
2023-04-03T01:35:24.348Z,2.80
2023-04-03T01:37:52.587Z,2.33
2023-04-03T01:40:20.950Z,2.53
2023-04-03T01:42:49.150Z,2.27
2023-04-03T01:45:17.379Z,2.30
2023-04-03T01:47:45.623Z,2.93
2023-04-03T01:50:15.561Z,2.80
2023-04-03T01:52:43.894Z,3.40
2023-04-03T01:55:12.170Z,2.70
2023-04-03T01:57:40.453Z,2.83
2023-04-03T02:00:10.270Z,2.70
2023-04-03T02:02:38.578Z,2.67
2023-04-03T02:05:07.079Z,2.10
2023-04-03T02:07:36.696Z,3.57
2023-04-03T02:10:05.338Z,2.50
2023-04-03T02:12:33.537Z,2.67
2023-04-03T02:15:01.848Z,2.63
2023-04-03T02:17:30.205Z,3.10
2023-04-03T02:19:58.462Z,2.57
2023-04-03T02:22:26.682Z,2.80
2023-04-03T02:24:56.274Z,3.30
2023-04-03T02:27:24.528Z,2.20
2023-04-03T02:29:52.749Z,2.87
2023-04-03T02:32:21.146Z,3.30
2023-04-03T02:34:49.360Z,2.70
2023-04-03T02:37:17.631Z,3.27
2023-04-03T02:39:45.803Z,2.10
2023-04-03T02:42:15.736Z,3.03
2023-04-03T02:44:43.990Z,2.87
2023-04-03T02:47:12.206Z,3.17
2023-04-03T02:49:40.454Z,2.10
2023-04-03T02:52:08.659Z,2.40
2023-04-03T02:54:36.822Z,2.60
2023-04-03T02:57:05.194Z,2.83
2023-04-03T02:59:34.850Z,3.20
2023-04-03T03:02:03.076Z,2.50
2023-04-03T03:04:31.440Z,2.90
2023-04-03T03:06:59.619Z,2.63
2023-04-03T03:09:27.815Z,3.90
2023-04-03T03:11:56.237Z,3.87
2023-04-03T03:14:24.419Z,3.00
2023-04-03T03:16:53.977Z,3.17
2023-04-03T03:19:22.137Z,2.90
2023-04-03T03:21:51.153Z,3.40
2023-04-03T03:24:19.447Z,3.73
2023-04-03T03:26:47.685Z,2.20
2023-04-03T03:29:15.943Z,4.03
2023-04-03T03:31:44.300Z,3.43
2023-04-03T03:34:13.863Z,2.63
2023-04-03T03:36:42.673Z,2.53
2023-04-03T03:39:11.207Z,3.77
2023-04-03T03:41:39.546Z,4.33
2023-04-03T03:44:07.798Z,3.37
2023-04-03T03:46:36.132Z,3.80
2023-04-03T03:49:04.377Z,2.90
2023-04-03T03:51:33.933Z,2.77
2023-04-03T03:54:02.147Z,3.47
2023-04-03T03:56:30.333Z,5.57
2023-04-03T03:58:58.571Z,3.17
2023-04-03T04:01:27.022Z,4.50
2023-04-03T04:03:56.340Z,3.80
2023-04-03T04:06:24.658Z,3.43
2023-04-03T04:08:54.756Z,2.70
2023-04-03T04:11:23.210Z,3.27
2023-04-03T04:13:51.415Z,2.80
2023-04-03T04:16:19.688Z,3.10
2023-04-03T04:18:47.927Z,4.77
2023-04-03T04:21:16.187Z,5.57
2023-04-03T04:23:44.386Z,5.23
2023-04-03T04:26:13.992Z,4.50
2023-04-03T04:28:42.186Z,3.80
2023-04-03T04:31:10.520Z,2.73
2023-04-03T04:33:38.752Z,2.80
2023-04-03T04:36:07.117Z,3.27
2023-04-03T04:38:35.357Z,3.87
2023-04-03T04:41:03.524Z,4.33
2023-04-03T04:43:36.212Z,4.40
2023-04-03T04:46:05.572Z,4.83
2023-04-03T04:48:33.886Z,3.23
2023-04-03T04:51:02.184Z,3.80
2023-04-03T04:53:30.609Z,5.60
2023-04-03T04:55:58.873Z,5.50
2023-04-03T04:58:28.421Z,5.50
2023-04-03T05:01:02.322Z,4.90
2023-04-03T05:03:30.860Z,3.90
2023-04-03T05:05:59.107Z,5.27
2023-04-03T05:08:27.650Z,5.63
2023-04-03T05:10:56.471Z,4.23
2023-04-03T05:13:25.037Z,5.00
2023-04-03T05:15:53.288Z,4.67
2023-04-03T05:18:22.897Z,4.50
2023-04-03T05:20:51.584Z,5.13
2023-04-03T05:23:20.219Z,4.90
2023-04-03T05:25:49.760Z,4.00
2023-04-03T05:28:18.016Z,5.23
2023-04-03T05:30:46.187Z,5.00
2023-04-03T05:33:15.097Z,5.83
2023-04-03T05:35:45.083Z,5.40
2023-04-03T05:38:13.981Z,5.60
2023-04-03T05:40:42.238Z,4.70
2023-04-03T05:43:10.661Z,4.23
2023-04-03T05:45:40.979Z,5.10
2023-04-03T05:48:09.306Z,5.20
2023-04-03T05:50:42.293Z,7.30
2023-04-03T05:53:17.089Z,6.80
2023-04-03T05:55:46.788Z,6.97
2023-04-03T05:58:15.464Z,6.70
2023-04-03T06:00:43.769Z,7.40
2023-04-03T06:03:12.110Z,7.03
2023-04-03T06:05:41.031Z,7.43
2023-04-03T06:08:10.072Z,6.77
2023-04-03T06:10:40.078Z,6.80
2023-04-03T06:13:08.953Z,5.80
2023-04-03T06:15:37.747Z,8.27
2023-04-03T06:18:06.281Z,6.40
2023-04-03T06:20:34.563Z,7.43
2023-04-03T06:23:03.172Z,8.10
2023-04-03T06:25:32.693Z,7.50
2023-04-03T06:28:02.511Z,6.00
2023-04-03T06:30:31.149Z,6.23
2023-04-03T06:33:00.328Z,6.50
2023-04-03T06:35:29.542Z,5.43
2023-04-03T06:37:57.792Z,6.33
2023-04-03T06:40:27.138Z,9.80
2023-04-03T06:42:55.480Z,7.90
2023-04-03T06:45:26.532Z,7.67
2023-04-03T06:47:55.007Z,6.90
2023-04-03T06:50:23.272Z,8.93
2023-04-03T06:52:51.527Z,7.87
2023-04-03T06:55:19.809Z,5.37
2023-04-03T06:57:48.111Z,8.03
2023-04-03T07:00:17.251Z,2.17
2023-04-03T07:02:47.503Z,4.10
2023-04-03T07:05:16.002Z,6.63
2023-04-03T07:07:44.530Z,8.47
2023-04-03T07:10:13.477Z,6.40
2023-04-03T07:12:41.716Z,6.30
2023-04-03T07:15:10.528Z,5.57
2023-04-03T07:17:39.023Z,6.30
2023-04-03T07:20:09.704Z,6.90
2023-04-03T07:22:37.908Z,6.60
2023-04-03T07:25:08.154Z,6.73
2023-04-03T07:27:36.677Z,5.50
2023-04-03T07:30:05.111Z,5.63
2023-04-03T07:32:33.366Z,5.40
2023-04-03T07:35:02.583Z,5.40
2023-04-03T07:37:33.384Z,4.70
2023-04-03T07:40:04.379Z,4.73
2023-04-03T07:42:32.749Z,5.40
2023-04-03T07:45:01.372Z,4.77
2023-04-03T07:47:29.915Z,4.33
2023-04-03T07:56:51.750Z,3.87
2023-04-03T08:02:52.487Z,4.20
2023-04-03T08:05:21.335Z,4.70
2023-04-03T08:07:49.784Z,3.60
2023-04-03T08:10:18.396Z,3.17
2023-04-03T08:12:50.033Z,4.70
2023-04-03T08:15:18.261Z,3.30
2023-04-03T08:17:46.607Z,4.50
2023-04-03T08:20:14.968Z,4.63
2023-04-03T08:22:43.254Z,5.23
2023-04-03T08:25:12.264Z,2.17
2023-04-03T08:27:40.574Z,4.00
2023-04-03T08:30:11.617Z,4.90
2023-04-03T08:32:40.724Z,3.17
2023-04-03T08:35:09.140Z,4.03
2023-04-03T08:37:38.107Z,4.13
2023-04-03T08:40:07.200Z,3.90
2023-04-03T08:42:42.652Z,3.00
2023-04-03T08:45:13.601Z,4.40
2023-04-03T08:47:43.959Z,4.47
2023-04-03T08:50:15.400Z,4.77
2023-04-03T08:52:44.847Z,1.57
2023-04-03T08:55:21.884Z,3.43
2023-04-03T08:57:51.091Z,4.53
2023-04-03T09:00:21.879Z,4.30
2023-04-03T09:02:50.952Z,3.00
2023-04-03T09:05:20.702Z,4.00
2023-04-03T09:07:50.702Z,3.87
2023-04-03T09:10:22.069Z,4.67
2023-04-03T09:12:52.980Z,4.20
2023-04-03T09:15:35.474Z,4.17
2023-04-03T09:18:08.079Z,3.80
2023-04-03T09:20:42.522Z,3.43
2023-04-03T09:23:20.405Z,4.30
2023-04-03T09:25:48.906Z,4.70
2023-04-03T09:28:17.358Z,3.90
2023-04-03T09:30:47.376Z,2.80
2023-04-03T09:33:16.499Z,1.33
2023-04-03T09:35:48.698Z,3.50
2023-04-03T09:38:19.292Z,3.00
2023-04-03T09:40:48.601Z,2.40
2023-04-03T09:43:25.397Z,1.67
2023-04-03T09:45:55.150Z,2.20
2023-04-03T09:48:24.416Z,2.03
2023-04-03T09:50:59.423Z,2.07
2023-04-03T09:53:32.325Z,1.97
2023-04-03T09:56:01.039Z,4.47
2023-04-03T09:58:42.769Z,2.50
2023-04-03T10:01:26.045Z,1.90
2023-04-03T10:04:05.848Z,3.50
2023-04-03T10:06:36.408Z,3.97
2023-04-03T10:09:09.641Z,3.47
2023-04-03T10:11:37.823Z,2.53
2023-04-03T10:14:07.908Z,2.97
2023-04-03T10:16:40.880Z,3.17
2023-04-03T10:19:27.344Z,2.83
2023-04-03T10:21:58.179Z,2.63
2023-04-03T10:24:28.478Z,3.23
2023-04-03T10:27:00.585Z,2.70
2023-04-03T10:29:38.385Z,2.57
2023-04-03T10:32:14.746Z,2.27
2023-04-03T10:34:46.793Z,2.40
2023-04-03T10:37:24.499Z,1.43
2023-04-03T10:39:56.855Z,2.47
2023-04-03T10:42:27.939Z,2.40
2023-04-03T10:45:04.021Z,1.93
2023-04-03T10:47:39.523Z,2.33
2023-04-03T10:50:15.891Z,3.27
2023-04-03T10:52:48.665Z,1.60
2023-04-03T10:55:27.148Z,2.30
2023-04-03T10:57:57.222Z,2.30
2023-04-03T11:00:29.524Z,1.93
2023-04-03T11:03:01.128Z,1.90
2023-04-03T11:05:31.104Z,1.97
2023-04-03T11:08:00.421Z,1.90
2023-04-03T11:10:31.955Z,2.13
2023-04-03T11:13:05.075Z,2.07
2023-04-03T11:15:35.348Z,2.63
2023-04-03T11:18:07.807Z,1.60
2023-04-03T11:20:38.903Z,2.93
2023-04-03T11:23:09.623Z,1.77
2023-04-03T11:25:39.723Z,1.80
2023-04-03T11:28:09.347Z,2.00
2023-04-03T11:30:42.779Z,1.70
2023-04-03T11:33:25.884Z,2.20
2023-04-03T11:35:56.949Z,1.67
2023-04-03T11:38:28.590Z,1.60
2023-04-03T11:40:57.963Z,0.93
2023-04-03T11:43:27.789Z,2.00
2023-04-03T11:45:59.645Z,1.90
2023-04-03T11:48:48.761Z,2.50
2023-04-03T11:51:35.455Z,1.27
2023-04-03T11:54:18.519Z,2.20
2023-04-03T11:56:48.041Z,1.00
2023-04-03T11:59:24.863Z,1.97
2023-04-03T12:01:53.731Z,1.20
2023-04-03T12:04:23.224Z,1.00
2023-04-03T12:06:52.662Z,1.93
2023-04-03T12:09:25.916Z,1.63
2023-04-03T12:12:04.129Z,1.40
2023-04-03T12:14:32.355Z,1.83
2023-04-03T12:17:01.142Z,1.83
2023-04-03T12:19:41.246Z,1.70
2023-04-03T12:22:15.404Z,1.80
2023-04-03T12:24:44.812Z,1.70
2023-04-03T12:27:31.262Z,1.10
2023-04-03T12:30:04.497Z,1.83
2023-04-03T12:32:40.578Z,1.83
2023-04-03T12:35:13.864Z,1.80
2023-04-03T12:37:49.847Z,1.13
2023-04-03T12:40:22.193Z,1.70
2023-04-03T12:43:05.810Z,1.70
2023-04-03T12:45:42.888Z,1.67
2023-04-03T12:48:16.221Z,1.60
2023-04-03T12:50:46.104Z,1.50
2023-04-03T12:53:16.457Z,1.70
2023-04-03T12:55:44.672Z,1.67
2023-04-03T12:58:17.275Z,1.50
2023-04-03T13:00:46.928Z,1.70
2023-04-03T13:03:24.696Z,1.67
2023-04-03T13:05:53.093Z,1.97
2023-04-03T13:08:21.887Z,2.20
2023-04-03T13:10:53.737Z,1.80
2023-04-03T13:13:21.904Z,1.20
2023-04-03T13:15:52.374Z,1.90
2023-04-03T13:18:25.540Z,2.07
2023-04-03T13:20:54.053Z,1.97
2023-04-03T13:23:23.769Z,2.17
2023-04-03T13:25:52.656Z,1.80
2023-04-03T13:28:22.061Z,1.00
2023-04-03T13:30:59.367Z,1.47
2023-04-03T13:33:28.543Z,1.40
2023-04-03T13:36:00.233Z,1.47
2023-04-03T13:38:29.040Z,1.50
2023-04-03T13:40:58.556Z,1.90
2023-04-03T13:43:27.755Z,1.50
2023-04-03T13:45:59.077Z,1.00
2023-04-03T13:48:27.379Z,1.03
2023-04-03T13:51:01.224Z,1.73
2023-04-03T13:53:30.381Z,3.07
2023-04-03T13:56:00.851Z,1.87
2023-04-03T13:58:30.384Z,1.60
2023-04-03T14:01:03.138Z,1.00
2023-04-03T14:03:32.544Z,1.10
2023-04-03T14:06:01.969Z,1.47
2023-04-03T14:08:42.283Z,2.03
2023-04-03T14:11:15.651Z,1.67
2023-04-03T14:13:43.940Z,1.60
2023-04-03T14:16:17.688Z,1.10
2023-04-03T14:18:46.690Z,1.53
2023-04-03T14:21:15.599Z,1.80
2023-04-03T14:23:43.870Z,1.47
2023-04-03T14:26:14.789Z,1.43
2023-04-03T14:28:44.856Z,1.70
2023-04-03T14:31:13.962Z,1.70
2023-04-03T14:33:43.596Z,1.27
2023-04-03T14:36:16.165Z,1.97
2023-04-03T14:38:44.475Z,1.30
2023-04-03T14:41:16.994Z,1.00
2023-04-03T14:43:45.500Z,1.40
2023-04-03T14:46:16.783Z,2.07
2023-04-03T14:48:46.968Z,1.27
2023-04-03T14:51:15.745Z,1.20
2023-04-03T14:53:45.691Z,1.50
2023-04-03T14:56:14.979Z,1.73
2023-04-03T14:58:43.425Z,1.27
2023-04-03T15:01:12.802Z,2.13
2023-04-03T15:03:41.188Z,1.40
2023-04-03T15:06:12.166Z,1.57
2023-04-03T15:08:42.084Z,0.83
2023-04-03T15:11:10.993Z,0.97
2023-04-03T15:13:39.234Z,1.53
2023-04-03T15:16:07.595Z,1.17
2023-04-03T15:18:38.799Z,1.80
2023-04-03T15:21:07.272Z,1.37
2023-04-03T15:23:36.865Z,1.60
2023-04-03T15:26:05.531Z,1.10
2023-04-03T15:28:36.124Z,1.30
2023-04-03T15:31:04.881Z,1.60
2023-04-03T15:33:33.410Z,2.10
2023-04-03T15:36:07.051Z,1.60
2023-04-03T15:38:39.011Z,1.60
2023-04-03T15:41:07.754Z,2.30
2023-04-03T15:43:36.101Z,1.13
2023-04-03T15:46:04.706Z,1.30
2023-04-03T15:48:33.069Z,1.80
2023-04-03T15:51:02.300Z,1.90
2023-04-03T15:53:30.753Z,2.20
2023-04-03T15:56:00.363Z,1.63
2023-04-03T15:58:28.772Z,2.00
2023-04-03T16:00:57.038Z,1.30
2023-04-03T16:03:25.666Z,1.60
2023-04-03T16:05:54.253Z,1.33
2023-04-03T16:08:22.800Z,1.60
2023-04-03T16:10:51.072Z,1.77
2023-04-03T16:13:20.724Z,1.50
2023-04-03T16:15:49.795Z,1.13
2023-04-03T16:18:19.388Z,1.57
2023-04-03T16:20:47.595Z,3.13
2023-04-03T16:23:15.805Z,2.07
2023-04-03T16:25:47.076Z,1.63
2023-04-03T16:28:15.881Z,1.67
2023-04-03T16:30:46.451Z,1.67
2023-04-03T16:33:15.451Z,1.67
2023-04-03T16:35:44.648Z,1.20
2023-04-03T16:38:12.823Z,1.97
2023-04-03T16:40:41.006Z,1.70
2023-04-03T16:43:09.206Z,1.67
2023-04-03T16:45:37.557Z,1.83
2023-04-03T16:48:07.656Z,2.50
2023-04-03T16:50:36.212Z,2.00
2023-04-03T16:53:04.539Z,0.90
2023-04-03T16:55:32.869Z,1.60
2023-04-03T16:58:01.061Z,1.37
2023-04-03T17:00:29.454Z,1.47
2023-04-03T17:02:57.747Z,1.03
2023-04-03T17:05:27.497Z,1.17
2023-04-03T17:07:55.686Z,0.97
2023-04-03T17:10:23.955Z,1.50
2023-04-03T17:12:52.140Z,1.40
2023-04-03T17:15:20.849Z,1.77
2023-04-03T17:17:49.608Z,0.90
2023-04-03T17:20:18.016Z,1.87
2023-04-03T17:22:47.718Z,0.77
2023-04-03T17:25:16.062Z,2.07
2023-04-03T17:27:44.367Z,1.37
2023-04-03T17:30:13.133Z,1.43
2023-04-03T17:32:41.546Z,1.90
2023-04-03T17:35:11.788Z,1.17
2023-04-03T17:37:40.329Z,1.50
2023-04-03T17:40:14.200Z,1.40
2023-04-03T17:42:42.524Z,1.80
2023-04-03T17:45:11.321Z,0.90
2023-04-03T17:47:39.617Z,0.80
2023-04-03T17:50:08.465Z,2.07
2023-04-03T17:52:36.760Z,1.97
2023-04-03T17:55:05.115Z,1.40
2023-04-03T17:57:34.669Z,1.90
2023-04-03T18:00:02.973Z,2.83
2023-04-03T18:02:32.293Z,3.20
2023-04-03T18:05:00.633Z,5.77
2023-04-03T18:07:29.235Z,4.20
2023-04-03T18:09:58.346Z,5.30
2023-04-03T18:12:27.868Z,4.90
2023-04-03T18:14:57.408Z,4.77
2023-04-03T18:17:26.757Z,4.80
2023-04-03T18:19:55.132Z,2.90
2023-04-03T18:22:24.416Z,3.90
2023-04-03T18:24:53.452Z,3.00
2023-04-03T18:27:22.378Z,2.70
2023-04-03T18:29:52.088Z,3.20
2023-04-03T18:32:22.449Z,3.00
2023-04-03T18:34:50.953Z,4.07
2023-04-03T18:37:20.905Z,2.97
2023-04-03T18:39:49.161Z,3.50
2023-04-03T18:42:18.174Z,3.30
2023-04-03T18:44:47.716Z,1.30
2023-04-03T18:47:15.960Z,2.63
2023-04-03T18:49:45.838Z,3.10
2023-04-03T18:52:14.331Z,2.57
2023-04-03T18:54:42.858Z,3.27
2023-04-03T18:57:11.130Z,3.10
2023-04-03T18:59:39.533Z,1.80
2023-04-03T19:02:08.509Z,2.20
2023-04-03T19:04:38.426Z,2.63
2023-04-03T19:07:09.378Z,3.30
2023-04-03T19:09:38.543Z,3.33
2023-04-03T19:12:06.937Z,2.40
2023-04-03T19:14:35.260Z,2.70
2023-04-03T19:17:04.064Z,2.30
2023-04-03T19:19:32.538Z,2.40
2023-04-03T19:22:00.760Z,1.33
2023-04-03T19:24:30.445Z,2.50
2023-04-03T19:26:59.694Z,2.07
2023-04-03T19:29:28.002Z,2.37
2023-04-03T19:31:56.302Z,2.83
2023-04-03T19:34:24.533Z,2.20
2023-04-03T19:36:53.160Z,2.10
2023-04-03T19:39:22.445Z,2.60
2023-04-03T19:41:52.128Z,1.90
2023-04-03T19:44:20.530Z,1.80
2023-04-03T19:46:50.607Z,1.70
2023-04-03T19:49:19.849Z,2.00
2023-04-03T19:51:48.144Z,1.87
2023-04-03T19:54:16.402Z,1.80
2023-04-03T19:56:44.782Z,2.33
2023-04-03T19:59:14.509Z,2.00
2023-04-03T20:01:42.846Z,2.67
2023-04-03T20:04:11.191Z,2.37
2023-04-03T20:06:39.552Z,1.80
2023-04-03T20:09:07.773Z,1.80
2023-04-03T20:11:36.292Z,1.97
2023-04-03T20:14:04.546Z,3.10
2023-04-03T20:16:34.479Z,3.37
2023-04-03T20:19:03.088Z,2.30
2023-04-03T20:21:31.886Z,2.60
2023-04-03T20:24:00.393Z,2.17
2023-04-03T20:26:29.764Z,2.30
2023-04-03T20:29:01.093Z,2.47
2023-04-03T20:31:30.167Z,2.70
2023-04-03T20:33:59.705Z,1.70
2023-04-03T20:36:28.886Z,2.20
2023-04-03T20:38:59.361Z,2.67
2023-04-03T20:41:27.889Z,2.60
2023-04-03T20:43:58.128Z,1.67
2023-04-03T20:46:42.305Z,2.97
2023-04-03T20:49:19.228Z,2.90
2023-04-03T20:51:47.735Z,3.70
2023-04-03T20:54:16.016Z,2.10
2023-04-03T20:56:44.263Z,2.80
2023-04-03T20:59:14.074Z,2.23
2023-04-03T21:01:42.443Z,2.00
2023-04-03T21:04:13.399Z,2.70
2023-04-03T21:07:02.946Z,2.37
2023-04-03T21:09:50.218Z,2.50
2023-04-03T21:12:36.913Z,2.37
2023-04-03T21:15:23.907Z,2.60
2023-04-03T21:18:06.369Z,2.70
2023-04-03T21:20:34.649Z,2.07
2023-04-03T21:23:02.881Z,2.40
2023-04-03T21:25:31.287Z,1.70
2023-04-03T21:27:59.965Z,2.17
2023-04-03T21:30:28.497Z,2.03
2023-04-03T21:32:56.861Z,2.73
2023-04-03T21:35:26.501Z,1.90
2023-04-03T21:37:54.683Z,2.27
2023-04-03T21:40:22.926Z,2.37
2023-04-03T21:42:55.178Z,2.33
2023-04-03T21:45:23.566Z,2.03
2023-04-03T21:47:51.989Z,2.53
2023-04-03T21:50:20.438Z,1.80
2023-04-03T21:52:49.994Z,1.40
2023-04-03T21:55:18.700Z,2.30
2023-04-03T21:57:52.365Z,1.90
2023-04-03T22:00:21.378Z,2.33
2023-04-03T22:02:51.264Z,2.70
2023-04-03T22:05:23.551Z,2.50
2023-04-03T22:07:53.909Z,1.83
2023-04-03T22:10:22.246Z,2.00
2023-04-03T22:12:50.403Z,2.20
2023-04-03T22:15:18.687Z,2.00
2023-04-03T22:17:46.916Z,1.63
2023-04-03T22:20:15.327Z,1.83
2023-04-03T22:22:43.613Z,2.60
2023-04-03T22:25:13.610Z,2.37
2023-04-03T22:27:42.170Z,1.60
2023-04-03T22:30:10.777Z,2.00
2023-04-03T22:32:39.673Z,1.63
2023-04-03T22:35:08.506Z,2.03
2023-04-03T22:37:36.768Z,2.27
2023-04-03T22:40:05.300Z,1.77
2023-04-03T22:42:34.825Z,2.00
2023-04-03T22:45:03.568Z,2.10
2023-04-03T22:47:32.007Z,2.20
2023-04-03T22:50:00.305Z,2.20
2023-04-03T22:52:28.512Z,2.07
2023-04-03T22:54:59.523Z,1.63
2023-04-03T22:57:31.871Z,2.67
2023-04-03T23:00:01.531Z,2.10
2023-04-03T23:02:29.809Z,2.67
2023-04-03T23:04:58.445Z,2.50
2023-04-03T23:07:27.523Z,1.50
2023-04-03T23:09:55.709Z,2.33
2023-04-03T23:12:23.955Z,2.23
2023-04-03T23:14:52.195Z,1.87
2023-04-03T23:17:22.209Z,2.17
2023-04-03T23:19:50.435Z,2.00
2023-04-03T23:22:18.684Z,1.93
2023-04-03T23:24:47.433Z,2.23
2023-04-03T23:27:15.766Z,2.97
2023-04-03T23:29:43.946Z,1.97
2023-04-03T23:32:12.297Z,2.73
2023-04-03T23:34:41.875Z,2.20
2023-04-03T23:37:13.033Z,2.20
2023-04-03T23:39:41.692Z,2.20
2023-04-03T23:42:11.982Z,2.03
2023-04-03T23:44:40.430Z,2.50
2023-04-03T23:47:08.600Z,2.10
2023-04-03T23:49:36.825Z,2.00
2023-04-03T23:52:06.460Z,1.97
2023-04-03T23:54:34.673Z,2.23
2023-04-03T23:57:03.043Z,2.07
2023-04-03T23:59:31.680Z,2.37
